createdAt,value
2019-03-20T00:02:06.765Z,102893.72
2019-03-20T00:04:37.375Z,102889.70
2019-03-20T00:07:08.013Z,102884.37
2019-03-20T00:09:38.636Z,102889.70
2019-03-20T00:12:09.213Z,102895.05
2019-03-20T00:14:39.771Z,102900.84
2019-03-20T00:17:10.416Z,102907.53
2019-03-20T00:19:41.080Z,102903.96
2019-03-20T00:22:11.769Z,102908.41
2019-03-20T00:24:42.270Z,102906.61
2019-03-20T00:27:12.759Z,102913.31
2019-03-20T00:29:45.338Z,102909.77
2019-03-20T00:32:15.989Z,102915.12
2019-03-20T00:34:46.570Z,102908.44
2019-03-20T00:37:18.228Z,102913.32
2019-03-20T00:39:52.809Z,102912.88
2019-03-20T00:42:23.402Z,102914.65
2019-03-20T00:44:54.116Z,102921.34
2019-03-20T00:47:39.187Z,102921.80
2019-03-20T00:50:15.301Z,102922.67
2019-03-20T00:52:46.058Z,102915.11
2019-03-20T00:55:16.915Z,102920.88
2019-03-20T00:57:47.878Z,102922.69
2019-03-20T01:00:18.846Z,102922.23
2019-03-20T01:02:49.514Z,102927.16
2019-03-20T01:05:23.846Z,102923.12
2019-03-20T01:07:56.628Z,102921.79
2019-03-20T01:10:27.266Z,102927.14
2019-03-20T01:12:57.846Z,102920.42
2019-03-20T01:15:28.457Z,102920.02
2019-03-20T01:17:58.978Z,102919.98
2019-03-20T01:20:29.540Z,102909.31
2019-03-20T01:23:00.129Z,102904.84
2019-03-20T01:25:30.694Z,102914.64
2019-03-20T01:28:01.272Z,102918.64
2019-03-20T01:30:39.211Z,102910.63
2019-03-20T01:33:10.872Z,102915.09
2019-03-20T01:35:41.677Z,102911.08
2019-03-20T01:38:17.555Z,102913.71
2019-03-20T01:40:48.183Z,102922.64
2019-03-20T01:43:18.878Z,102917.31
2019-03-20T01:45:59.205Z,102920.43
2019-03-20T01:48:36.913Z,102928.01
2019-03-20T01:51:17.238Z,102927.53
2019-03-20T01:53:47.919Z,102923.12
2019-03-20T01:56:18.696Z,102921.77
2019-03-20T01:58:49.278Z,102922.66
2019-03-20T02:01:23.435Z,102917.73
2019-03-20T02:03:54.096Z,102913.31
2019-03-20T02:06:24.793Z,102910.64
2019-03-20T02:08:55.368Z,102909.75
2019-03-20T02:11:26.078Z,102919.52
2019-03-20T02:13:56.775Z,102913.30
2019-03-20T02:16:28.412Z,102912.41
2019-03-20T02:19:00.041Z,102917.76
2019-03-20T02:21:36.540Z,102923.54
2019-03-20T02:24:24.543Z,102928.89
2019-03-20T02:26:55.145Z,102927.05
2019-03-20T02:29:25.759Z,102933.27
2019-03-20T02:31:57.320Z,102922.63
2019-03-20T02:34:27.905Z,102922.17
2019-03-20T02:36:58.571Z,102922.61
2019-03-20T02:39:30.298Z,102918.54
2019-03-20T02:42:00.898Z,102918.59
2019-03-20T02:44:39.734Z,102918.55
2019-03-20T02:47:10.505Z,102908.74
2019-03-20T02:49:42.294Z,102910.95
2019-03-20T02:52:12.989Z,102911.84
2019-03-20T02:54:43.567Z,102909.56
2019-03-20T02:57:17.432Z,102907.70
2019-03-20T02:59:55.785Z,102903.27
2019-03-20T03:02:31.955Z,102903.27
2019-03-20T03:05:02.749Z,102909.98
2019-03-20T03:07:45.244Z,102912.22
2019-03-20T03:10:15.932Z,102913.19
2019-03-20T03:12:54.786Z,102911.86
2019-03-20T03:15:25.475Z,102918.53
2019-03-20T03:17:57.093Z,102918.09
2019-03-20T03:20:33.565Z,102912.81
2019-03-20T03:23:04.314Z,102911.91
2019-03-20T03:25:51.363Z,102913.19
2019-03-20T03:28:22.991Z,102915.36
2019-03-20T03:30:53.649Z,102918.09
2019-03-20T03:33:26.551Z,102922.95
2019-03-20T03:35:57.200Z,102922.06
2019-03-20T03:38:27.813Z,102927.85
2019-03-20T03:40:58.431Z,102926.09
2019-03-20T03:43:29.179Z,102923.88
2019-03-20T03:45:59.827Z,102924.30
2019-03-20T03:48:30.448Z,102927.89
2019-03-20T03:51:01.024Z,102926.03
2019-03-20T03:53:31.618Z,102921.57
2019-03-20T03:56:02.268Z,102917.00
2019-03-20T03:58:35.976Z,102933.84
2019-03-20T04:01:06.590Z,102936.98
2019-03-20T04:03:37.260Z,102929.38
2019-03-20T04:06:11.488Z,102929.84
2019-03-20T04:08:42.183Z,102929.00
2019-03-20T04:11:12.670Z,102925.08
2019-03-20T04:13:43.321Z,102923.29
2019-03-20T04:16:15.342Z,102931.30
2019-03-20T04:18:55.894Z,102928.59
2019-03-20T04:21:26.565Z,102926.33
2019-03-20T04:23:57.157Z,102922.77
2019-03-20T04:26:27.773Z,102923.72
2019-03-20T04:28:58.436Z,102919.23
2019-03-20T04:31:30.166Z,102930.77
2019-03-20T04:34:06.913Z,102932.53
2019-03-20T04:36:47.187Z,102927.31
2019-03-20T04:39:22.370Z,102928.19
2019-03-20T04:45:12.876Z,102926.88
2019-03-20T04:47:43.974Z,102929.16
2019-03-20T04:50:15.710Z,102925.66
2019-03-20T04:52:46.321Z,102926.92
2019-03-20T04:55:18.026Z,102925.14
2019-03-20T04:57:48.620Z,102925.08
2019-03-20T05:00:19.309Z,102925.90
2019-03-20T05:03:07.018Z,102927.78
2019-03-20T05:05:37.716Z,102925.14
2019-03-20T05:08:08.368Z,102934.02
2019-03-20T05:10:39.011Z,102933.59
2019-03-20T05:13:09.654Z,102936.68
2019-03-20T05:15:40.376Z,102927.34
2019-03-20T05:18:22.354Z,102934.91
2019-03-20T05:20:56.429Z,102944.77
2019-03-20T05:23:34.168Z,102934.13
2019-03-20T05:26:04.829Z,102934.96
2019-03-20T05:28:35.426Z,102939.88
2019-03-20T05:31:06.118Z,102939.94
2019-03-20T05:33:36.675Z,102949.74
2019-03-20T05:36:08.372Z,102953.71
2019-03-20T05:38:38.989Z,102946.92
2019-03-20T05:41:11.633Z,102946.52
2019-03-20T05:44:25.910Z,102949.19
2019-03-20T05:46:56.545Z,102958.50
2019-03-20T05:49:28.225Z,102966.17
2019-03-20T05:51:58.981Z,102971.07
2019-03-20T05:54:35.243Z,102971.03
2019-03-20T05:57:06.828Z,102973.20
2019-03-20T05:59:41.736Z,102974.98
2019-03-20T06:02:12.483Z,102977.67
2019-03-20T06:04:43.291Z,102983.02
2019-03-20T06:07:21.585Z,102988.44
2019-03-20T06:09:55.980Z,102999.98
2019-03-20T06:12:26.668Z,103000.42
2019-03-20T06:15:00.450Z,103001.30
2019-03-20T06:17:31.147Z,102994.59
2019-03-20T06:20:01.891Z,102998.67
2019-03-20T06:22:32.513Z,103005.44
2019-03-20T06:25:04.708Z,103003.70
2019-03-20T06:27:35.408Z,102997.92
2019-03-20T06:30:07.019Z,102998.36
2019-03-20T06:32:41.768Z,103003.70
2019-03-20T06:35:17.102Z,103005.05
2019-03-20T06:37:47.860Z,103005.56
2019-03-20T06:40:23.884Z,103008.21
2019-03-20T06:42:55.457Z,103015.78
2019-03-20T06:45:26.290Z,103018.00
2019-03-20T06:48:17.770Z,103017.09
2019-03-20T06:50:48.414Z,103012.61
2019-03-20T06:53:20.219Z,103023.75
2019-03-20T06:55:56.273Z,103020.20
2019-03-20T06:58:37.081Z,103025.98
2019-03-20T07:01:20.479Z,103024.22
2019-03-20T07:04:14.657Z,103025.56
2019-03-20T07:07:09.928Z,103025.60
2019-03-20T07:10:22.843Z,103034.48
2019-03-20T07:13:14.589Z,103026.91
2019-03-20T07:15:58.753Z,103038.50
2019-03-20T07:18:33.275Z,103026.92
2019-03-20T07:21:11.291Z,103025.59
2019-03-20T07:26:56.862Z,103032.31
2019-03-20T07:29:27.496Z,103028.77
2019-03-20T07:32:11.597Z,103030.09
2019-03-20T07:35:13.237Z,103029.22
2019-03-20T07:37:56.219Z,103034.11
2019-03-20T07:40:32.207Z,103035.02
2019-03-20T07:43:08.583Z,103037.25
2019-03-20T07:45:36.598Z,103041.66
2019-03-20T07:48:07.378Z,103027.36
2019-03-20T07:50:38.131Z,103035.81
2019-03-20T07:53:10.851Z,103043.39
2019-03-20T07:55:42.612Z,103044.23
2019-03-20T08:01:22.191Z,103039.22
2019-03-20T08:03:52.788Z,103046.00
2019-03-20T08:06:28.516Z,103043.27
2019-03-20T08:08:59.134Z,103039.27
2019-03-20T08:11:34.940Z,103039.68
2019-03-20T08:14:05.749Z,103047.68
2019-03-20T08:16:37.488Z,103044.48
2019-03-20T08:19:19.179Z,103047.63
2019-03-20T08:22:23.618Z,103051.08
2019-03-20T08:24:55.890Z,103049.75
2019-03-20T08:27:27.590Z,103051.48
2019-03-20T08:30:09.636Z,103051.88
2019-03-20T08:32:40.421Z,103061.17
2019-03-20T08:35:19.317Z,103061.94
2019-03-20T08:37:50.324Z,103067.94
2019-03-20T08:40:28.102Z,103086.05
2019-03-20T08:42:58.762Z,103097.94
2019-03-20T08:45:31.364Z,103101.42
2019-03-20T08:48:02.128Z,103101.84
2019-03-20T08:50:35.706Z,103096.52
2019-03-20T08:53:06.641Z,103097.05
2019-03-20T08:55:37.298Z,103090.74
2019-03-20T08:58:07.967Z,103092.04
2019-03-20T09:00:44.753Z,103096.92
2019-03-20T09:03:15.372Z,103097.16
2019-03-20T09:05:47.063Z,103101.64
2019-03-20T09:08:28.521Z,103100.30
2019-03-20T09:10:58.221Z,103105.75
2019-03-20T09:13:28.973Z,103109.34
2019-03-20T09:16:16.507Z,103115.44
2019-03-20T09:18:52.405Z,103118.91
2019-03-20T09:21:57.218Z,103116.45
2019-03-20T09:24:30.586Z,103115.16
2019-03-20T09:27:05.542Z,103120.54
2019-03-20T09:29:38.421Z,103118.85
2019-03-20T09:32:09.383Z,103113.34
2019-03-20T09:34:40.129Z,103109.91
2019-03-20T09:37:17.400Z,103116.22
2019-03-20T09:39:48.097Z,103118.55
2019-03-20T09:42:22.022Z,103109.04
2019-03-20T09:44:52.567Z,103113.08
2019-03-20T09:47:24.398Z,103112.38
2019-03-20T09:50:00.054Z,103114.46
2019-03-20T09:52:33.102Z,103110.91
2019-03-20T09:55:04.932Z,103116.74
2019-03-20T09:57:36.583Z,103115.36
2019-03-20T10:00:14.294Z,103114.53
2019-03-20T10:02:56.084Z,103116.11
2019-03-20T10:05:26.675Z,103114.31
2019-03-20T10:07:57.363Z,103118.43
2019-03-20T10:10:28.034Z,103121.54
2019-03-20T10:13:06.632Z,103120.02
2019-03-20T10:15:55.640Z,103124.02
2019-03-20T10:18:26.275Z,103119.38
2019-03-20T10:20:56.929Z,103120.80
2019-03-20T10:23:27.682Z,103112.72
2019-03-20T10:25:58.251Z,103118.47
2019-03-20T10:28:30.907Z,103113.72
2019-03-20T10:31:04.948Z,103123.47
2019-03-20T10:33:35.552Z,103118.97
2019-03-20T10:36:07.213Z,103121.84
2019-03-20T10:38:42.309Z,103116.16
2019-03-20T10:41:15.994Z,103126.31
2019-03-20T10:43:46.753Z,103117.77
2019-03-20T10:46:17.453Z,103115.48
2019-03-20T10:48:56.235Z,103108.52
2019-03-20T10:51:26.390Z,103110.22
2019-03-20T10:53:57.101Z,103113.28
2019-03-20T10:56:27.883Z,103116.30
2019-03-20T10:59:02.460Z,103104.86
2019-03-20T11:01:42.175Z,103100.95
2019-03-20T11:04:06.442Z,103107.84
2019-03-20T11:06:37.137Z,103112.41
2019-03-20T11:09:19.374Z,103103.70
2019-03-20T11:11:50.073Z,103107.20
2019-03-20T11:14:20.860Z,103106.30
2019-03-20T11:16:52.484Z,103109.59
2019-03-20T11:19:23.307Z,103104.41
2019-03-20T11:21:56.224Z,103112.58
2019-03-20T11:24:26.983Z,103109.75
2019-03-20T11:26:57.585Z,103112.11
2019-03-20T11:29:28.336Z,103113.91
2019-03-20T11:31:59.002Z,103112.97
2019-03-20T11:34:36.626Z,103115.20
2019-03-20T11:37:07.396Z,103118.75
2019-03-20T11:39:37.999Z,103118.88
2019-03-20T11:42:10.615Z,103113.06
2019-03-20T11:44:47.247Z,103110.59
2019-03-20T11:47:19.038Z,103114.74
2019-03-20T11:49:51.671Z,103113.18
2019-03-20T11:52:22.357Z,103106.59
2019-03-20T11:54:52.945Z,103108.89
2019-03-20T11:57:31.581Z,103101.17
2019-03-20T12:00:02.283Z,103102.09
2019-03-20T12:02:37.460Z,103104.48
2019-03-20T12:05:09.294Z,103104.77
2019-03-20T12:07:39.969Z,103104.94
2019-03-20T12:10:13.519Z,103105.85
2019-03-20T12:12:44.220Z,103102.06
2019-03-20T12:15:14.986Z,103103.59
2019-03-20T12:17:45.760Z,103101.98
2019-03-20T12:20:22.616Z,103104.70
2019-03-20T12:22:53.337Z,103102.33
2019-03-20T12:25:25.967Z,103100.89
2019-03-20T12:27:56.690Z,103110.12
2019-03-20T12:30:28.181Z,103114.31
2019-03-20T12:32:58.857Z,103110.83
2019-03-20T12:35:39.998Z,103104.64
2019-03-20T12:38:15.550Z,103099.30
2019-03-20T12:40:46.237Z,103104.70
2019-03-20T12:43:24.206Z,103104.82
2019-03-20T12:45:54.935Z,103106.12
2019-03-20T12:48:25.628Z,103096.59
2019-03-20T12:50:57.346Z,103101.48
2019-03-20T12:53:30.319Z,103097.42
2019-03-20T12:56:04.226Z,103100.38
2019-03-20T12:58:49.094Z,103094.36
2019-03-20T13:01:19.761Z,103093.48
2019-03-20T13:03:57.428Z,103092.25
2019-03-20T13:06:28.094Z,103091.03
2019-03-20T13:08:58.706Z,103092.51
2019-03-20T13:11:33.561Z,103084.45
2019-03-20T13:14:05.902Z,103081.45
2019-03-20T13:16:38.734Z,103083.19
2019-03-20T13:19:10.359Z,103082.92
2019-03-20T13:21:40.960Z,103076.63
2019-03-20T13:24:11.643Z,103084.53
2019-03-20T13:26:43.300Z,103085.19
2019-03-20T13:29:15.074Z,103083.00
2019-03-20T13:31:48.845Z,103083.15
2019-03-20T13:34:19.509Z,103085.80
2019-03-20T13:36:51.211Z,103080.69
2019-03-20T13:39:21.841Z,103082.81
2019-03-20T13:41:52.819Z,103081.58
2019-03-20T13:44:23.375Z,103081.21
2019-03-20T13:47:08.265Z,103076.84
2019-03-20T13:49:40.876Z,103080.73
2019-03-20T13:52:12.589Z,103086.52
2019-03-20T13:54:44.384Z,103096.06
2019-03-20T13:57:15.039Z,103086.98
2019-03-20T13:59:45.829Z,103092.72
2019-03-20T14:02:16.403Z,103092.40
2019-03-20T14:04:47.010Z,103095.73
2019-03-20T14:07:17.605Z,103099.48
2019-03-20T14:09:48.323Z,103093.77
2019-03-20T14:12:20.851Z,103098.61
2019-03-20T14:14:51.538Z,103093.51
2019-03-20T14:17:22.385Z,103104.18
2019-03-20T14:19:53.124Z,103095.19
2019-03-20T14:22:23.833Z,103097.73
2019-03-20T14:25:06.760Z,103099.51
2019-03-20T14:27:37.783Z,103093.25
2019-03-20T14:30:18.237Z,103095.54
2019-03-20T14:32:50.991Z,103097.52
2019-03-20T14:35:21.979Z,103091.53
2019-03-20T14:37:58.096Z,103092.77
2019-03-20T14:40:36.257Z,103097.16
2019-03-20T14:43:09.352Z,103086.05
2019-03-20T14:45:40.094Z,103081.16
2019-03-20T14:48:24.013Z,103081.16
2019-03-20T14:50:54.970Z,103085.86
2019-03-20T14:53:26.104Z,103080.31
2019-03-20T14:55:58.955Z,103077.41
2019-03-20T14:58:31.614Z,103081.98
2019-03-20T15:01:02.371Z,103077.92
2019-03-20T15:03:35.148Z,103068.66
2019-03-20T15:06:05.902Z,103081.94
2019-03-20T15:08:36.603Z,103077.56
2019-03-20T15:11:07.585Z,103079.14
2019-03-20T15:13:40.343Z,103072.73
2019-03-20T15:16:12.392Z,103073.50
2019-03-20T15:18:43.323Z,103072.10
2019-03-20T15:21:14.047Z,103075.64
2019-03-20T15:23:44.866Z,103069.70
2019-03-20T15:26:15.828Z,103073.00
2019-03-20T15:28:46.586Z,103070.97
2019-03-20T15:31:17.360Z,103068.57
2019-03-20T15:33:50.151Z,103064.84
2019-03-20T15:36:20.816Z,103067.55
2019-03-20T15:38:53.523Z,103060.23
2019-03-20T15:41:26.284Z,103054.07
2019-03-20T15:44:16.011Z,103051.27
2019-03-20T15:46:48.796Z,103054.59
2019-03-20T15:49:20.590Z,103057.37
2019-03-20T15:51:51.229Z,103059.48
2019-03-20T15:54:21.973Z,103064.59
2019-03-20T15:56:52.782Z,103065.12
2019-03-20T15:59:23.547Z,103062.62
2019-03-20T16:01:54.266Z,103056.07
2019-03-20T16:04:25.963Z,103062.10
2019-03-20T16:06:57.686Z,103064.65
2019-03-20T16:09:28.363Z,103067.76
2019-03-20T16:11:58.982Z,103064.50
2019-03-20T16:14:29.716Z,103060.00
2019-03-20T16:17:00.363Z,103061.48
2019-03-20T16:19:31.193Z,103068.80
2019-03-20T16:22:01.939Z,103069.75
2019-03-20T16:24:32.584Z,103065.56
2019-03-20T16:27:08.619Z,103068.77
2019-03-20T16:29:39.779Z,103071.82
2019-03-20T16:32:11.501Z,103064.05
2019-03-20T16:34:43.116Z,103064.86
2019-03-20T16:37:14.015Z,103067.19
2019-03-20T16:39:54.236Z,103064.16
2019-03-20T16:42:26.037Z,103069.58
2019-03-20T16:44:56.889Z,103068.69
2019-03-20T16:47:27.728Z,103070.10
2019-03-20T16:49:58.514Z,103069.38
2019-03-20T16:52:31.247Z,103066.98
2019-03-20T16:55:11.417Z,103065.75
2019-03-20T16:57:42.172Z,103068.86
2019-03-20T17:00:18.749Z,103064.14
2019-03-20T17:02:49.740Z,103065.88
2019-03-20T17:05:20.628Z,103066.41
2019-03-20T17:07:51.503Z,103074.47
2019-03-20T17:10:25.366Z,103070.35
2019-03-20T17:12:56.159Z,103082.59
2019-03-20T17:15:30.922Z,103076.16
2019-03-20T17:18:04.654Z,103081.44
2019-03-20T17:20:46.195Z,103080.22
2019-03-20T17:23:17.568Z,103088.09
2019-03-20T17:25:48.332Z,103090.72
2019-03-20T17:28:19.007Z,103084.80
2019-03-20T17:30:50.015Z,103085.06
2019-03-20T17:33:24.161Z,103088.28
2019-03-20T17:35:54.899Z,103092.34
2019-03-20T17:38:30.252Z,103088.04
2019-03-20T17:41:14.825Z,103090.31
2019-03-20T17:43:45.596Z,103081.10
2019-03-20T17:46:17.482Z,103088.70
2019-03-20T17:48:49.260Z,103090.55
2019-03-20T17:51:23.207Z,103081.72
2019-03-20T17:53:53.913Z,103087.90
2019-03-20T17:56:43.178Z,103088.41
2019-03-20T17:59:13.929Z,103092.98
2019-03-20T18:01:52.635Z,103092.13
2019-03-20T18:04:23.454Z,103102.61
2019-03-20T18:06:59.384Z,103092.13
2019-03-20T18:09:32.086Z,103095.72
2019-03-20T18:12:12.593Z,103100.06
2019-03-20T18:14:43.853Z,103101.47
2019-03-20T18:17:20.385Z,103109.19
2019-03-20T18:19:53.182Z,103106.58
2019-03-20T18:22:29.505Z,103102.14
2019-03-20T18:25:01.179Z,103115.77
2019-03-20T18:27:31.876Z,103114.92
2019-03-20T18:30:02.533Z,103120.48
2019-03-20T18:32:33.757Z,103130.12
2019-03-20T18:35:10.873Z,103128.08
2019-03-20T18:37:43.629Z,103129.59
2019-03-20T18:40:17.719Z,103126.30
2019-03-20T18:42:52.554Z,103126.30
2019-03-20T18:45:23.308Z,103128.25
2019-03-20T18:47:55.041Z,103128.30
2019-03-20T18:50:25.808Z,103127.50
2019-03-20T18:52:58.543Z,103129.64
2019-03-20T18:55:29.388Z,103128.20
2019-03-20T18:58:01.501Z,103132.34
2019-03-20T19:00:32.263Z,103129.20
2019-03-20T19:03:03.867Z,103129.34
2019-03-20T19:05:41.957Z,103136.09
2019-03-20T19:08:13.210Z,103136.48
2019-03-20T19:10:48.917Z,103141.43
2019-03-20T19:13:24.353Z,103147.55
2019-03-20T19:15:57.525Z,103148.13
2019-03-20T19:18:30.815Z,103149.97
2019-03-20T19:21:02.597Z,103151.98
2019-03-20T19:23:34.618Z,103165.67
2019-03-20T19:26:06.753Z,103169.15
2019-03-20T19:28:37.712Z,103173.56
2019-03-20T19:31:08.689Z,103171.03
2019-03-20T19:33:39.708Z,103170.45
2019-03-20T19:36:11.597Z,103170.00
2019-03-20T19:38:42.391Z,103167.59
2019-03-20T19:41:13.870Z,103166.65
2019-03-20T19:43:44.613Z,103177.88
2019-03-20T19:46:16.632Z,103166.16
2019-03-20T19:48:48.848Z,103168.36
2019-03-20T19:51:27.773Z,103176.58
2019-03-20T19:54:00.155Z,103178.05
2019-03-20T19:56:37.387Z,103180.26
2019-03-20T19:59:09.129Z,103180.02
2019-03-20T20:01:42.147Z,103184.42
2019-03-20T20:04:13.683Z,103180.43
2019-03-20T20:06:49.855Z,103186.22
2019-03-20T20:09:22.919Z,103181.11
2019-03-20T20:11:58.106Z,103185.08
2019-03-20T20:14:30.173Z,103183.41
2019-03-20T20:17:03.025Z,103181.08
2019-03-20T20:19:34.889Z,103174.78
2019-03-20T20:22:05.749Z,103176.66
2019-03-20T20:24:38.692Z,103171.76
2019-03-20T20:27:13.715Z,103171.80
2019-03-20T20:29:44.527Z,103169.55
2019-03-20T20:32:16.538Z,103176.81
2019-03-20T20:34:50.114Z,103178.95
2019-03-20T20:37:25.741Z,103177.23
2019-03-20T20:39:56.763Z,103176.33
2019-03-20T20:42:27.714Z,103179.47
2019-03-20T20:45:00.518Z,103177.64
2019-03-20T20:47:32.560Z,103177.83
2019-03-20T20:50:03.769Z,103177.80
2019-03-20T20:52:40.445Z,103180.15
2019-03-20T20:55:13.737Z,103173.45
2019-03-20T20:57:44.943Z,103174.46
2019-03-20T21:00:17.718Z,103174.72
2019-03-20T21:02:52.608Z,103168.32
2019-03-20T21:05:24.482Z,103164.35
2019-03-20T21:07:55.446Z,103163.19
2019-03-20T21:10:26.191Z,103165.50
2019-03-20T21:12:59.174Z,103166.36
2019-03-20T21:15:50.597Z,103164.73
2019-03-20T21:19:04.583Z,103169.27
2019-03-20T21:22:22.485Z,103167.70
2019-03-20T21:24:53.714Z,103161.03
2019-03-20T21:27:55.677Z,103162.02
2019-03-20T21:31:23.820Z,103169.08
2019-03-20T21:34:29.185Z,103159.17
2019-03-20T21:37:51.583Z,103156.98
2019-03-20T21:40:25.216Z,103159.72
2019-03-20T21:43:23.834Z,103161.22
2019-03-20T21:46:15.733Z,103164.89
2019-03-20T21:48:46.813Z,103163.16
2019-03-20T21:51:23.847Z,103174.38
2019-03-20T21:54:35.556Z,103174.38
2019-03-20T21:57:47.706Z,103176.65
2019-03-20T22:00:54.568Z,103179.98
2019-03-20T22:03:36.218Z,103181.83
2019-03-20T22:06:37.176Z,103177.82
2019-03-20T22:09:38.746Z,103180.95
2019-03-20T22:12:36.345Z,103175.13
2019-03-20T22:15:31.126Z,103174.73
2019-03-20T22:18:40.364Z,103175.73
2019-03-20T22:21:46.322Z,103177.20
2019-03-20T22:24:42.630Z,103175.91
2019-03-20T22:30:31.747Z,103176.01
2019-03-20T22:33:38.336Z,103176.05
2019-03-20T22:36:16.525Z,103175.64
2019-03-20T22:38:59.014Z,103173.50
2019-03-20T22:41:41.136Z,103170.86
2019-03-20T22:44:12.371Z,103166.88
2019-03-20T22:47:32.705Z,103168.59
2019-03-20T22:50:33.541Z,103167.31
2019-03-20T22:53:39.791Z,103167.28
2019-03-20T22:57:01.724Z,103164.64
2019-03-20T22:59:38.463Z,103175.77
2019-03-20T23:02:43.479Z,103174.98
2019-03-20T23:05:41.837Z,103180.81
2019-03-20T23:08:16.584Z,103172.41
2019-03-20T23:10:54.297Z,103175.09
2019-03-20T23:13:25.555Z,103177.78
2019-03-20T23:16:02.778Z,103173.31
2019-03-20T23:18:35.107Z,103176.94
2019-03-20T23:21:13.339Z,103180.09
2019-03-20T23:23:49.065Z,103173.41
2019-03-20T23:26:20.674Z,103173.94
2019-03-20T23:28:55.364Z,103169.53
2019-03-20T23:31:27.701Z,103172.08
2019-03-20T23:33:58.850Z,103181.09
2019-03-20T23:36:29.984Z,103181.59
2019-03-20T23:42:13.839Z,103169.64
2019-03-20T23:45:12.812Z,103170.97
2019-03-20T23:48:17.962Z,103172.33
2019-03-20T23:51:05.535Z,103169.71
2019-03-20T23:53:39.486Z,103166.15
2019-03-20T23:56:10.681Z,103166.11
2019-03-20T23:58:41.846Z,103166.98
